createdAt,value
2023-02-14T00:00:49.732Z,9.07
2023-02-14T00:03:16.692Z,8.60
2023-02-14T00:05:43.359Z,8.67
2023-02-14T00:08:10.078Z,8.93
2023-02-14T00:10:37.134Z,8.07
2023-02-14T00:13:04.479Z,8.13
2023-02-14T00:15:31.132Z,8.77
2023-02-14T00:18:00.859Z,9.27
2023-02-14T00:20:28.336Z,8.07
2023-02-14T00:22:55.096Z,7.80
2023-02-14T00:25:22.186Z,8.30
2023-02-14T00:27:48.831Z,7.23
2023-02-14T00:30:15.748Z,8.47
2023-02-14T00:32:43.219Z,7.33
2023-02-14T00:35:10.853Z,8.37
2023-02-14T00:37:38.016Z,7.63
2023-02-14T00:40:07.450Z,7.70
2023-02-14T00:42:34.508Z,7.17
2023-02-14T00:45:01.519Z,7.50
2023-02-14T00:47:28.289Z,7.43
2023-02-14T00:49:54.975Z,7.50
2023-02-14T00:52:21.963Z,8.33
2023-02-14T00:54:48.862Z,8.33
2023-02-14T00:57:15.527Z,8.03
2023-02-14T00:59:42.412Z,7.70
2023-02-14T01:02:09.098Z,9.23
2023-02-14T01:04:36.036Z,8.10
2023-02-14T01:07:02.743Z,7.87
2023-02-14T01:09:29.351Z,7.60
2023-02-14T01:11:56.356Z,8.33
2023-02-14T01:14:22.993Z,8.53
2023-02-14T01:16:49.770Z,7.30
2023-02-14T01:19:16.512Z,7.03
2023-02-14T01:21:43.218Z,8.53
2023-02-14T01:24:11.493Z,7.73
2023-02-14T01:26:38.184Z,7.47
2023-02-14T01:29:05.982Z,6.80
2023-02-14T01:31:35.159Z,7.27
2023-02-14T01:34:02.634Z,6.93
2023-02-14T01:36:33.226Z,7.77
2023-02-14T01:39:04.600Z,8.80
2023-02-14T01:41:34.633Z,8.63
2023-02-14T01:44:17.114Z,8.30
2023-02-14T01:46:47.191Z,7.73
2023-02-14T01:49:26.070Z,9.13
2023-02-14T01:52:10.652Z,8.87
2023-02-14T01:54:44.363Z,8.70
2023-02-14T01:57:16.186Z,9.03
2023-02-14T01:59:51.006Z,8.57
2023-02-14T02:02:23.905Z,9.23
2023-02-14T02:04:55.812Z,9.20
2023-02-14T02:07:27.033Z,7.53
2023-02-14T02:09:58.498Z,6.87
2023-02-14T02:12:25.196Z,6.47
2023-02-14T02:14:54.653Z,7.20
2023-02-14T02:17:39.589Z,7.47
2023-02-14T02:20:30.847Z,7.00
2023-02-14T02:23:17.402Z,8.03
2023-02-14T02:26:19.159Z,7.07
2023-02-14T02:28:58.576Z,9.23
2023-02-14T02:31:54.587Z,7.73
2023-02-14T02:34:58.995Z,7.67
2023-02-14T02:37:40.760Z,8.23
2023-02-14T02:40:44.241Z,9.23
2023-02-14T02:43:30.761Z,7.90
2023-02-14T02:46:48.410Z,8.47
2023-02-14T02:50:12.878Z,6.63
2023-02-14T02:53:01.576Z,7.17
2023-02-14T02:56:09.606Z,7.40
2023-02-14T02:58:45.634Z,6.13
2023-02-14T03:01:17.458Z,6.63
2023-02-14T03:04:07.205Z,6.70
2023-02-14T03:06:34.337Z,7.20
2023-02-14T03:09:30.590Z,7.60
2023-02-14T03:12:31.595Z,7.20
2023-02-14T03:15:01.500Z,7.70
2023-02-14T03:17:55.301Z,6.70
2023-02-14T03:20:36.461Z,8.27
2023-02-14T03:23:25.506Z,8.07
2023-02-14T03:26:13.835Z,8.17
2023-02-14T03:28:51.360Z,7.67
2023-02-14T03:31:27.140Z,7.93
2023-02-14T03:34:02.808Z,8.03
2023-02-14T03:36:38.318Z,8.73
2023-02-14T03:39:07.997Z,8.33
2023-02-14T03:41:40.851Z,8.30
2023-02-14T03:44:11.521Z,8.37
2023-02-14T03:46:50.332Z,8.20
2023-02-14T03:49:22.047Z,8.27
2023-02-14T03:51:52.716Z,8.73
2023-02-14T03:54:20.993Z,8.17
2023-02-14T03:56:52.844Z,7.50
2023-02-14T03:59:26.165Z,7.80
2023-02-14T04:02:06.137Z,8.40
2023-02-14T04:04:39.023Z,7.67
2023-02-14T04:07:14.704Z,9.67
2023-02-14T04:09:41.648Z,8.03
2023-02-14T04:12:08.582Z,8.20
2023-02-14T04:14:35.474Z,8.10
2023-02-14T04:17:21.349Z,9.87
2023-02-14T04:19:47.982Z,9.67
2023-02-14T04:22:14.866Z,8.73
2023-02-14T04:24:41.857Z,10.20
2023-02-14T04:27:11.433Z,10.73
2023-02-14T04:29:44.066Z,10.07
2023-02-14T04:32:14.250Z,10.93
2023-02-14T04:34:41.511Z,9.83
2023-02-14T04:37:08.713Z,9.00
2023-02-14T04:39:36.173Z,5.17
2023-02-14T04:42:04.524Z,4.93
2023-02-14T04:44:31.384Z,5.50
2023-02-14T04:46:58.245Z,5.07
2023-02-14T04:49:24.881Z,4.33
2023-02-14T04:51:51.500Z,5.30
2023-02-14T04:54:18.345Z,4.87
2023-02-14T04:56:44.969Z,3.77
2023-02-14T04:59:11.842Z,4.73
2023-02-14T05:01:38.480Z,5.43
2023-02-14T05:04:05.275Z,5.13
2023-02-14T05:06:33.143Z,4.73
2023-02-14T05:09:00.768Z,5.33
2023-02-14T05:11:28.610Z,4.80
2023-02-14T05:13:55.530Z,5.17
2023-02-14T05:16:22.695Z,5.10
2023-02-14T05:18:49.501Z,4.93
2023-02-14T05:21:33.334Z,7.80
2023-02-14T05:24:00.903Z,5.07
2023-02-14T05:26:28.355Z,4.80
2023-02-14T05:28:54.988Z,5.20
2023-02-14T05:31:22.119Z,4.60
2023-02-14T05:33:48.838Z,5.20
2023-02-14T05:36:15.469Z,5.10
2023-02-14T05:38:42.432Z,5.10
2023-02-14T05:41:09.086Z,5.10
2023-02-14T05:43:35.753Z,5.53
2023-02-14T05:46:02.701Z,5.20
2023-02-14T05:48:29.361Z,8.87
2023-02-14T05:50:56.010Z,4.37
2023-02-14T05:53:22.932Z,5.40
2023-02-14T05:55:49.801Z,5.70
2023-02-14T05:58:16.445Z,5.33
2023-02-14T06:00:43.060Z,5.27
2023-02-14T06:03:10.161Z,4.67
2023-02-14T06:05:36.809Z,5.73
2023-02-14T06:08:03.619Z,5.83
2023-02-14T06:10:30.385Z,5.70
2023-02-14T06:12:57.610Z,4.73
2023-02-14T06:15:24.282Z,5.30
2023-02-14T06:17:55.369Z,4.77
2023-02-14T06:20:24.203Z,5.63
2023-02-14T06:22:51.669Z,5.43
2023-02-14T06:25:18.423Z,5.33
2023-02-14T06:27:45.948Z,6.50
2023-02-14T06:30:14.253Z,5.73
2023-02-14T06:32:41.134Z,5.13
2023-02-14T06:35:08.393Z,6.40
2023-02-14T06:37:35.116Z,5.10
2023-02-14T06:40:02.109Z,5.40
2023-02-14T06:42:28.773Z,5.27
2023-02-14T06:44:55.437Z,5.40
2023-02-14T06:47:22.347Z,5.57
2023-02-14T06:49:48.946Z,5.50
2023-02-14T06:52:15.670Z,5.80
2023-02-14T06:54:42.624Z,6.07
2023-02-14T06:57:09.251Z,4.63
2023-02-14T06:59:36.106Z,5.27
2023-02-14T07:02:03.733Z,5.50
2023-02-14T07:04:30.705Z,5.00
2023-02-14T07:06:58.381Z,5.17
2023-02-14T07:09:25.033Z,5.13
2023-02-14T07:11:51.652Z,5.03
2023-02-14T07:14:18.501Z,5.30
2023-02-14T07:16:45.159Z,5.57
2023-02-14T07:19:12.262Z,5.83
2023-02-14T07:21:39.097Z,6.27
2023-02-14T07:24:05.980Z,6.53
2023-02-14T07:26:32.849Z,6.37
2023-02-14T07:28:59.548Z,6.60
2023-02-14T07:31:26.548Z,6.97
2023-02-14T07:33:53.541Z,7.37
2023-02-14T07:36:20.415Z,8.20
2023-02-14T07:38:47.056Z,7.57
2023-02-14T07:41:13.742Z,8.50
2023-02-14T07:43:40.645Z,8.07
2023-02-14T07:46:07.569Z,7.00
2023-02-14T07:48:34.802Z,7.27
2023-02-14T07:51:02.219Z,6.70
2023-02-14T07:53:29.234Z,7.57
2023-02-14T07:55:55.945Z,7.37
2023-02-14T07:58:22.968Z,7.37
2023-02-14T08:00:51.075Z,6.97
2023-02-14T08:03:17.932Z,7.57
2023-02-14T08:05:45.123Z,7.93
2023-02-14T08:08:12.026Z,7.80
2023-02-14T08:10:41.704Z,7.90
2023-02-14T08:13:08.401Z,7.40
2023-02-14T08:16:02.823Z,7.63
2023-02-14T08:18:29.788Z,7.30
2023-02-14T08:20:56.521Z,7.10
2023-02-14T08:23:23.533Z,6.10
2023-02-14T08:26:25.019Z,5.03
2023-02-14T08:28:51.695Z,6.60
2023-02-14T08:31:35.123Z,6.57
2023-02-14T08:34:15.795Z,6.60
2023-02-14T08:36:42.979Z,8.20
2023-02-14T08:39:10.441Z,7.63
2023-02-14T08:41:37.132Z,7.60
2023-02-14T08:44:04.156Z,7.55
2023-02-14T08:46:31.000Z,8.05
2023-02-14T08:48:57.970Z,7.80
2023-02-14T08:51:25.845Z,7.45
2023-02-14T08:53:53.246Z,7.13
2023-02-14T08:56:22.544Z,7.72
2023-02-14T08:58:53.072Z,6.95
2023-02-14T09:01:20.148Z,8.07
2023-02-14T09:03:46.969Z,7.72
2023-02-14T09:06:17.689Z,6.57
2023-02-14T09:08:45.628Z,7.30
2023-02-14T09:11:18.854Z,7.38
2023-02-14T09:13:46.780Z,5.43
2023-02-14T09:16:17.380Z,5.40
2023-02-14T09:18:45.253Z,6.00
2023-02-14T09:21:16.394Z,6.20
2023-02-14T09:23:43.196Z,11.90
2023-02-14T09:26:13.265Z,11.57
2023-02-14T09:28:40.707Z,5.85
2023-02-14T09:31:13.295Z,5.95
2023-02-14T09:33:59.098Z,5.10
2023-02-14T09:36:44.862Z,5.30
2023-02-14T09:39:11.528Z,4.15
2023-02-14T09:41:48.420Z,2.90
2023-02-14T09:44:31.321Z,2.83
2023-02-14T09:47:06.513Z,2.60
2023-02-14T09:49:37.624Z,3.45
2023-02-14T09:52:07.382Z,3.05
2023-02-14T09:54:35.845Z,3.10
2023-02-14T09:57:09.631Z,2.90
2023-02-14T09:59:52.433Z,2.85
2023-02-14T10:02:42.099Z,2.95
2023-02-14T10:05:14.498Z,2.67
2023-02-14T10:08:03.345Z,3.10
2023-02-14T10:10:50.819Z,2.95
2023-02-14T10:13:24.476Z,3.30
2023-02-14T10:16:15.885Z,3.17
2023-02-14T10:19:01.830Z,3.50
2023-02-14T10:21:52.350Z,3.13
2023-02-14T10:24:39.484Z,2.97
2023-02-14T10:27:49.785Z,3.08
2023-02-14T10:30:22.203Z,3.30
2023-02-14T10:33:03.039Z,3.30
2023-02-14T10:35:44.391Z,3.08
2023-02-14T10:38:44.039Z,3.00
2023-02-14T10:41:28.587Z,3.22
2023-02-14T10:44:32.190Z,4.93
2023-02-14T10:47:26.651Z,3.15
2023-02-14T10:50:16.595Z,3.67
2023-02-14T10:53:17.274Z,3.47
2023-02-14T10:55:49.033Z,3.53
2023-02-14T10:58:20.334Z,3.45
2023-02-14T11:01:03.516Z,3.45
2023-02-14T11:03:30.815Z,3.45
2023-02-14T11:05:57.504Z,3.15
2023-02-14T11:08:33.548Z,2.80
2023-02-14T11:11:29.236Z,3.55
2023-02-14T11:13:56.249Z,2.97
2023-02-14T11:16:33.027Z,2.78
2023-02-14T11:19:55.059Z,2.97
2023-02-14T11:22:30.075Z,2.67
2023-02-14T11:25:19.576Z,2.92
2023-02-14T11:27:50.316Z,2.90
2023-02-14T11:30:23.534Z,2.45
2023-02-14T11:32:55.278Z,2.40
2023-02-14T11:35:27.434Z,3.03
2023-02-14T11:37:56.560Z,3.08
2023-02-14T11:40:33.673Z,2.90
2023-02-14T11:43:15.279Z,2.42
2023-02-14T11:45:44.394Z,2.55
2023-02-14T11:48:39.553Z,2.42
2023-02-14T11:51:10.167Z,2.40
2023-02-14T11:53:52.258Z,2.25
2023-02-14T11:56:20.982Z,2.30
2023-02-14T11:58:58.312Z,2.50
2023-02-14T12:01:29.251Z,2.35
2023-02-14T12:04:07.571Z,2.08
2023-02-14T12:06:36.441Z,2.10
2023-02-14T12:09:22.378Z,2.25
2023-02-14T12:11:59.057Z,2.20
2023-02-14T12:14:32.376Z,2.70
2023-02-14T12:17:23.720Z,2.90
2023-02-14T12:20:26.054Z,3.70
2023-02-14T12:23:01.348Z,2.83
2023-02-14T12:25:40.548Z,2.35
2023-02-14T12:28:15.660Z,2.50
2023-02-14T12:30:42.779Z,2.75
2023-02-14T12:33:19.835Z,2.58
2023-02-14T12:36:08.356Z,2.58
2023-02-14T12:39:09.161Z,1.95
2023-02-14T12:42:07.623Z,2.35
2023-02-14T12:44:40.312Z,2.05
2023-02-14T12:47:39.318Z,2.60
2023-02-14T12:50:23.666Z,2.10
2023-02-14T12:53:21.324Z,2.17
2023-02-14T12:56:22.257Z,2.25
2023-02-14T12:59:12.859Z,2.22
2023-02-14T13:02:28.013Z,2.38
2023-02-14T13:04:57.113Z,2.38
2023-02-14T13:07:29.772Z,2.50
2023-02-14T13:10:05.322Z,2.55
2023-02-14T13:12:39.888Z,2.58
2023-02-14T13:15:22.106Z,2.60
2023-02-14T13:17:59.813Z,2.50
2023-02-14T13:20:48.774Z,2.40
2023-02-14T13:23:26.717Z,2.70
2023-02-14T13:26:06.247Z,3.07
2023-02-14T13:28:35.793Z,3.20
2023-02-14T13:31:03.408Z,2.93
2023-02-14T13:33:36.794Z,3.00
2023-02-14T13:36:08.103Z,3.20
2023-02-14T13:38:50.090Z,3.00
2023-02-14T13:41:18.365Z,2.90
2023-02-14T13:43:46.377Z,3.10
2023-02-14T13:46:22.513Z,3.00
2023-02-14T13:49:27.066Z,3.20
2023-02-14T13:52:05.569Z,3.20
2023-02-14T13:54:43.496Z,3.07
2023-02-14T13:57:42.661Z,3.10
2023-02-14T14:00:21.297Z,3.07
2023-02-14T14:02:59.153Z,3.47
2023-02-14T14:05:40.427Z,3.17
2023-02-14T14:08:23.497Z,3.33
2023-02-14T14:10:56.116Z,3.13
2023-02-14T14:13:41.093Z,3.20
2023-02-14T14:16:29.062Z,2.80
2023-02-14T14:19:04.626Z,3.20
2023-02-14T14:21:34.602Z,3.10
2023-02-14T14:24:23.459Z,2.97
2023-02-14T14:26:59.818Z,2.70
2023-02-14T14:29:38.509Z,3.77
2023-02-14T14:32:26.429Z,3.40
2023-02-14T14:35:21.488Z,2.83
2023-02-14T14:37:55.340Z,3.33
2023-02-14T14:40:31.640Z,3.30
2023-02-14T14:43:14.256Z,3.67
2023-02-14T14:45:41.990Z,3.60
2023-02-14T14:48:12.709Z,3.40
2023-02-14T14:50:47.076Z,3.43
2023-02-14T14:53:48.754Z,3.00
2023-02-14T14:56:32.680Z,3.60
2023-02-14T14:59:27.140Z,3.30
2023-02-14T15:01:54.467Z,3.60
2023-02-14T15:04:33.510Z,3.00
2023-02-14T15:07:18.520Z,3.70
2023-02-14T15:09:45.895Z,3.80
2023-02-14T15:12:40.885Z,3.60
2023-02-14T15:15:11.151Z,3.27
2023-02-14T15:17:39.158Z,3.00
2023-02-14T15:20:19.821Z,3.73
2023-02-14T15:22:49.530Z,3.30
2023-02-14T15:25:33.155Z,3.33
2023-02-14T15:28:00.241Z,3.23
2023-02-14T15:30:37.934Z,3.07
2023-02-14T15:33:06.846Z,5.10
2023-02-14T15:35:36.940Z,5.30
2023-02-14T15:38:06.953Z,3.70
2023-02-14T15:40:34.975Z,6.77
2023-02-14T15:43:15.920Z,15.27
2023-02-14T15:45:45.187Z,10.73
2023-02-14T15:48:39.445Z,9.23
2023-02-14T15:51:06.769Z,6.97
2023-02-14T15:53:53.576Z,5.27
2023-02-14T15:56:35.305Z,4.00
2023-02-14T15:59:06.919Z,7.53
2023-02-14T16:01:35.621Z,8.87
2023-02-14T16:04:05.356Z,7.50
2023-02-14T16:06:44.582Z,4.90
2023-02-14T16:09:26.971Z,5.60
2023-02-14T16:11:54.084Z,7.27
2023-02-14T16:14:40.944Z,10.83
2023-02-14T16:17:34.345Z,8.00
2023-02-14T16:20:39.801Z,7.13
2023-02-14T16:23:28.192Z,6.40
2023-02-14T16:25:58.533Z,5.80
2023-02-14T16:28:29.555Z,5.50
2023-02-14T16:30:58.428Z,4.97
2023-02-14T16:33:35.970Z,5.00
2023-02-14T16:36:23.271Z,5.00
2023-02-14T16:38:50.749Z,4.67
2023-02-14T16:41:20.663Z,4.53
2023-02-14T16:43:48.505Z,5.07
2023-02-14T16:46:19.005Z,4.43
2023-02-14T16:48:46.859Z,4.30
2023-02-14T16:51:14.541Z,4.73
2023-02-14T16:53:43.144Z,4.93
2023-02-14T16:56:21.366Z,5.47
2023-02-14T16:58:48.526Z,5.30
2023-02-14T17:01:15.462Z,5.27
2023-02-14T17:03:44.850Z,6.10
2023-02-14T17:06:15.768Z,6.77
2023-02-14T17:08:43.405Z,6.37
2023-02-14T17:11:10.713Z,6.87
2023-02-14T17:13:41.110Z,7.20
2023-02-14T17:16:11.243Z,7.03
2023-02-14T17:18:38.929Z,7.63
2023-02-14T17:21:05.863Z,7.17
2023-02-14T17:23:32.579Z,7.00
2023-02-14T17:25:59.428Z,5.57
2023-02-14T17:28:26.592Z,6.00
2023-02-14T17:30:54.437Z,5.73
2023-02-14T17:33:22.144Z,33.07
2023-02-14T17:35:49.265Z,11.53
2023-02-14T17:38:16.275Z,6.60
2023-02-14T17:40:42.908Z,6.27
2023-02-14T17:43:09.683Z,9.20
2023-02-14T17:45:36.431Z,9.87
2023-02-14T17:48:03.118Z,12.07
2023-02-14T17:50:29.784Z,16.63
2023-02-14T17:52:56.925Z,19.83
2023-02-14T17:55:24.068Z,19.93
2023-02-14T17:57:52.559Z,16.73
2023-02-14T18:00:24.100Z,13.70
2023-02-14T18:02:50.808Z,14.50
2023-02-14T18:05:17.588Z,21.20
2023-02-14T18:07:44.396Z,22.83
2023-02-14T18:10:12.145Z,17.67
2023-02-14T18:12:39.032Z,14.90
2023-02-14T18:15:05.986Z,16.57
2023-02-14T18:17:32.902Z,11.93
2023-02-14T18:19:59.609Z,12.13
2023-02-14T18:22:28.256Z,13.87
2023-02-14T18:24:58.861Z,13.43
2023-02-14T18:27:26.172Z,10.37
2023-02-14T18:29:52.930Z,10.63
2023-02-14T18:32:23.788Z,12.23
2023-02-14T18:34:51.436Z,10.83
2023-02-14T18:37:18.371Z,10.37
2023-02-14T18:39:45.366Z,11.27
2023-02-14T18:42:11.979Z,10.80
2023-02-14T18:44:42.004Z,12.17
2023-02-14T18:47:08.924Z,13.37
2023-02-14T18:49:35.830Z,8.97
2023-02-14T18:52:04.817Z,6.67
2023-02-14T18:54:31.696Z,7.13
2023-02-14T18:56:58.425Z,7.50
2023-02-14T18:59:25.063Z,9.17
2023-02-14T19:01:52.108Z,9.93
2023-02-14T19:04:18.836Z,10.03
2023-02-14T19:06:45.519Z,10.80
2023-02-14T19:09:14.133Z,7.83
2023-02-14T19:11:41.441Z,5.53
2023-02-14T19:14:13.454Z,5.03
2023-02-14T19:16:50.367Z,5.83
2023-02-14T19:19:18.202Z,5.80
2023-02-14T19:21:45.570Z,5.97
2023-02-14T19:24:12.561Z,6.67
2023-02-14T19:26:42.622Z,6.60
2023-02-14T19:29:15.024Z,6.90
2023-02-14T19:31:44.651Z,7.87
2023-02-14T19:34:19.552Z,8.13
2023-02-14T19:36:46.871Z,8.23
2023-02-14T19:39:14.089Z,8.40
2023-02-14T19:41:40.994Z,8.77
2023-02-14T19:44:09.682Z,8.73
2023-02-14T19:46:38.164Z,8.90
2023-02-14T19:49:05.072Z,9.50
2023-02-14T19:51:34.356Z,10.20
2023-02-14T19:54:02.884Z,8.97
2023-02-14T19:56:32.135Z,10.63
2023-02-14T19:58:59.218Z,9.60
2023-02-14T20:01:25.954Z,10.57
2023-02-14T20:03:53.775Z,10.53
2023-02-14T20:06:21.925Z,10.27
2023-02-14T20:08:48.832Z,11.17
2023-02-14T20:11:30.961Z,10.40
2023-02-14T20:13:58.992Z,10.00
2023-02-14T20:16:27.320Z,10.97
2023-02-14T20:18:54.560Z,9.03
2023-02-14T20:21:25.361Z,8.20
2023-02-14T20:23:52.543Z,9.20
2023-02-14T20:26:19.331Z,10.00
2023-02-14T20:28:48.626Z,11.17
2023-02-14T20:31:19.430Z,11.07
2023-02-14T20:33:47.670Z,10.53
2023-02-14T20:36:14.570Z,10.13
2023-02-14T20:38:41.208Z,10.23
2023-02-14T20:41:10.728Z,12.43
2023-02-14T20:43:38.805Z,12.77
2023-02-14T20:46:07.154Z,12.10
2023-02-14T20:48:34.772Z,12.87
2023-02-14T20:51:12.201Z,11.90
2023-02-14T20:53:39.927Z,12.47
2023-02-14T20:56:07.808Z,14.33
2023-02-14T20:58:35.653Z,20.33
2023-02-14T21:01:17.309Z,18.03
2023-02-14T21:03:47.052Z,19.50
2023-02-14T21:06:15.016Z,20.67
2023-02-14T21:08:43.061Z,17.60
2023-02-14T21:11:12.606Z,14.73
2023-02-14T21:13:39.494Z,14.00
2023-02-14T21:16:09.408Z,14.47
2023-02-14T21:18:38.599Z,13.17
2023-02-14T21:21:18.424Z,12.77
2023-02-14T21:23:45.064Z,11.67
2023-02-14T21:26:11.766Z,11.33
2023-02-14T21:28:38.600Z,11.97
2023-02-14T21:31:15.707Z,12.87
2023-02-14T21:33:42.646Z,10.60
2023-02-14T21:36:15.389Z,11.07
2023-02-14T21:38:42.213Z,13.13
2023-02-14T21:41:11.783Z,11.73
2023-02-14T21:43:41.171Z,11.20
2023-02-14T21:46:13.698Z,11.63
2023-02-14T21:48:59.428Z,10.97
2023-02-14T21:51:27.763Z,10.90
2023-02-14T21:53:55.235Z,11.10
2023-02-14T21:56:23.138Z,10.43
2023-02-14T21:58:52.534Z,10.13
2023-02-14T22:01:22.584Z,11.00
2023-02-14T22:03:49.690Z,10.43
2023-02-14T22:06:16.770Z,11.20
2023-02-14T22:08:43.951Z,10.30
2023-02-14T22:11:13.694Z,10.90
2023-02-14T22:13:40.848Z,10.90
2023-02-14T22:16:13.096Z,9.83
2023-02-14T22:18:40.285Z,11.20
2023-02-14T22:21:14.120Z,10.97
2023-02-14T22:23:41.116Z,11.33
2023-02-14T22:26:23.832Z,12.13
2023-02-14T22:28:53.850Z,12.00
2023-02-14T22:31:20.629Z,12.43
2023-02-14T22:33:48.848Z,10.73
2023-02-14T22:36:16.245Z,10.20
2023-02-14T22:38:43.429Z,10.67
2023-02-14T22:41:12.058Z,10.37
2023-02-14T22:43:39.635Z,10.50
2023-02-14T22:46:09.637Z,9.43
2023-02-14T22:48:37.732Z,10.40
2023-02-14T22:51:11.342Z,10.33
2023-02-14T22:53:39.309Z,9.13
2023-02-14T22:56:24.354Z,10.10
2023-02-14T22:58:56.080Z,8.80
2023-02-14T23:01:23.685Z,9.43
2023-02-14T23:03:54.168Z,10.30
2023-02-14T23:06:21.129Z,10.43
2023-02-14T23:08:48.327Z,10.93
2023-02-14T23:11:21.350Z,10.27
2023-02-14T23:14:06.621Z,9.43
2023-02-14T23:16:52.126Z,9.50
2023-02-14T23:19:40.475Z,8.90
2023-02-14T23:22:16.353Z,8.83
2023-02-14T23:24:43.091Z,8.93
2023-02-14T23:27:10.066Z,8.90
2023-02-14T23:29:37.494Z,9.03
2023-02-14T23:32:05.706Z,8.70
2023-02-14T23:34:34.576Z,10.37
2023-02-14T23:37:01.810Z,8.73
2023-02-14T23:39:28.625Z,7.90
2023-02-14T23:41:55.420Z,8.80
2023-02-14T23:44:24.622Z,8.40
2023-02-14T23:46:57.127Z,8.07
2023-02-14T23:49:25.159Z,7.47
2023-02-14T23:51:53.332Z,9.07
2023-02-14T23:54:21.314Z,9.27
2023-02-14T23:56:48.434Z,9.30
2023-02-14T23:59:16.183Z,8.90
